sensor_id;sensor_type;location;lat;lon;timestamp;P1;durP1;ratioP1;P2;durP2;ratioP2
37657;SDS011;23500;53.268;8.308;2023-11-19T00:00:15;11.60;;;9.05;;
37657;SDS011;23500;53.268;8.308;2023-11-19T00:02:42;10.95;;;9.25;;
37657;SDS011;23500;53.268;8.308;2023-11-19T00:05:08;11.88;;;9.63;;
37657;SDS011;23500;53.268;8.308;2023-11-19T00:07:35;12.85;;;9.50;;
37657;SDS011;23500;53.268;8.308;2023-11-19T00:10:01;10.70;;;9.57;;
37657;SDS011;23500;53.268;8.308;2023-11-19T00:12:31;10.45;;;9.27;;
37657;SDS011;23500;53.268;8.308;2023-11-19T00:14:57;13.30;;;9.00;;
37657;SDS011;23500;53.268;8.308;2023-11-19T00:17:23;11.15;;;9.02;;
37657;SDS011;23500;53.268;8.308;2023-11-19T00:19:48;11.90;;;9.18;;
37657;SDS011;23500;53.268;8.308;2023-11-19T00:22:16;12.23;;;9.43;;
37657;SDS011;23500;53.268;8.308;2023-11-19T00:24:42;11.70;;;8.63;;
37657;SDS011;23500;53.268;8.308;2023-11-19T00:27:08;10.30;;;8.90;;
37657;SDS011;23500;53.268;8.308;2023-11-19T00:29:33;12.80;;;9.15;;
37657;SDS011;23500;53.268;8.308;2023-11-19T00:31:59;11.02;;;9.05;;
37657;SDS011;23500;53.268;8.308;2023-11-19T00:34:25;11.68;;;8.85;;
37657;SDS011;23500;53.268;8.308;2023-11-19T00:36:51;9.45;;;8.43;;
37657;SDS011;23500;53.268;8.308;2023-11-19T00:39:16;12.18;;;9.45;;
37657;SDS011;23500;53.268;8.308;2023-11-19T00:41:43;11.75;;;9.10;;
37657;SDS011;23500;53.268;8.308;2023-11-19T00:44:08;9.48;;;8.10;;
37657;SDS011;23500;53.268;8.308;2023-11-19T00:46:34;10.38;;;8.15;;
37657;SDS011;23500;53.268;8.308;2023-11-19T00:49:00;10.48;;;8.45;;
37657;SDS011;23500;53.268;8.308;2023-11-19T00:51:26;11.20;;;8.57;;
37657;SDS011;23500;53.268;8.308;2023-11-19T00:53:51;9.93;;;8.38;;
37657;SDS011;23500;53.268;8.308;2023-11-19T00:56:18;10.05;;;8.90;;
37657;SDS011;23500;53.268;8.308;2023-11-19T00:58:44;10.18;;;8.30;;
37657;SDS011;23500;53.268;8.308;2023-11-19T01:01:11;10.00;;;8.13;;
37657;SDS011;23500;53.268;8.308;2023-11-19T01:03:37;10.20;;;8.57;;
37657;SDS011;23500;53.268;8.308;2023-11-19T01:06:03;11.05;;;8.30;;
37657;SDS011;23500;53.268;8.308;2023-11-19T01:08:29;9.50;;;7.88;;
37657;SDS011;23500;53.268;8.308;2023-11-19T01:10:55;11.15;;;8.40;;
37657;SDS011;23500;53.268;8.308;2023-11-19T01:13:21;11.43;;;8.43;;
37657;SDS011;23500;53.268;8.308;2023-11-19T01:15:47;8.82;;;7.82;;
37657;SDS011;23500;53.268;8.308;2023-11-19T01:18:13;9.57;;;8.00;;
37657;SDS011;23500;53.268;8.308;2023-11-19T01:20:38;9.02;;;7.50;;
37657;SDS011;23500;53.268;8.308;2023-11-19T01:23:04;9.13;;;7.50;;
37657;SDS011;23500;53.268;8.308;2023-11-19T01:25:30;8.63;;;7.72;;
37657;SDS011;23500;53.268;8.308;2023-11-19T01:27:56;9.30;;;7.75;;
37657;SDS011;23500;53.268;8.308;2023-11-19T01:30:24;9.88;;;7.35;;
37657;SDS011;23500;53.268;8.308;2023-11-19T01:32:50;10.02;;;7.57;;
37657;SDS011;23500;53.268;8.308;2023-11-19T01:35:16;9.93;;;7.47;;
37657;SDS011;23500;53.268;8.308;2023-11-19T01:37:42;9.52;;;7.75;;
37657;SDS011;23500;53.268;8.308;2023-11-19T01:40:08;7.57;;;6.75;;
37657;SDS011;23500;53.268;8.308;2023-11-19T01:42:37;8.07;;;6.95;;
37657;SDS011;23500;53.268;8.308;2023-11-19T01:45:06;8.45;;;7.28;;
37657;SDS011;23500;53.268;8.308;2023-11-19T01:47:35;9.20;;;7.50;;
37657;SDS011;23500;53.268;8.308;2023-11-19T01:50:02;7.85;;;7.00;;
37657;SDS011;23500;53.268;8.308;2023-11-19T01:52:33;8.45;;;7.22;;
37657;SDS011;23500;53.268;8.308;2023-11-19T01:55:02;7.60;;;6.78;;
37657;SDS011;23500;53.268;8.308;2023-11-19T01:57:28;8.00;;;6.97;;
37657;SDS011;23500;53.268;8.308;2023-11-19T01:59:54;7.95;;;7.07;;
37657;SDS011;23500;53.268;8.308;2023-11-19T02:02:19;8.45;;;7.00;;
37657;SDS011;23500;53.268;8.308;2023-11-19T02:04:46;7.57;;;6.45;;
37657;SDS011;23500;53.268;8.308;2023-11-19T02:07:14;7.43;;;6.68;;
37657;SDS011;23500;53.268;8.308;2023-11-19T02:09:42;7.22;;;6.50;;
37657;SDS011;23500;53.268;8.308;2023-11-19T02:12:09;7.57;;;6.68;;
37657;SDS011;23500;53.268;8.308;2023-11-19T02:14:36;8.65;;;6.68;;
37657;SDS011;23500;53.268;8.308;2023-11-19T02:17:02;8.13;;;6.20;;
37657;SDS011;23500;53.268;8.308;2023-11-19T02:19:28;7.82;;;6.80;;
37657;SDS011;23500;53.268;8.308;2023-11-19T02:21:54;7.97;;;6.63;;
37657;SDS011;23500;53.268;8.308;2023-11-19T02:24:21;7.53;;;6.32;;
37657;SDS011;23500;53.268;8.308;2023-11-19T02:27:05;8.77;;;6.57;;
37657;SDS011;23500;53.268;8.308;2023-11-19T02:29:38;7.78;;;6.10;;
37657;SDS011;23500;53.268;8.308;2023-11-19T02:32:04;7.50;;;6.55;;
37657;SDS011;23500;53.268;8.308;2023-11-19T02:34:34;7.45;;;6.50;;
37657;SDS011;23500;53.268;8.308;2023-11-19T02:37:00;6.32;;;5.72;;
37657;SDS011;23500;53.268;8.308;2023-11-19T02:39:26;7.10;;;6.10;;
37657;SDS011;23500;53.268;8.308;2023-11-19T02:41:51;8.60;;;6.43;;
37657;SDS011;23500;53.268;8.308;2023-11-19T02:44:18;8.00;;;6.32;;
37657;SDS011;23500;53.268;8.308;2023-11-19T02:46:43;7.05;;;6.13;;
37657;SDS011;23500;53.268;8.308;2023-11-19T02:49:09;6.07;;;5.47;;
37657;SDS011;23500;53.268;8.308;2023-11-19T02:51:35;6.32;;;5.18;;
37657;SDS011;23500;53.268;8.308;2023-11-19T02:54:01;6.97;;;6.10;;
37657;SDS011;23500;53.268;8.308;2023-11-19T02:56:28;6.15;;;5.50;;
37657;SDS011;23500;53.268;8.308;2023-11-19T02:58:59;6.25;;;5.32;;
37657;SDS011;23500;53.268;8.308;2023-11-19T03:01:32;7.53;;;5.97;;
37657;SDS011;23500;53.268;8.308;2023-11-19T03:04:00;6.75;;;5.78;;
37657;SDS011;23500;53.268;8.308;2023-11-19T03:06:27;6.03;;;5.43;;
37657;SDS011;23500;53.268;8.308;2023-11-19T03:08:54;7.03;;;5.55;;
37657;SDS011;23500;53.268;8.308;2023-11-19T03:11:20;5.68;;;5.00;;
37657;SDS011;23500;53.268;8.308;2023-11-19T03:13:46;6.10;;;5.32;;
37657;SDS011;23500;53.268;8.308;2023-11-19T03:16:12;6.18;;;4.93;;
37657;SDS011;23500;53.268;8.308;2023-11-19T03:18:38;5.68;;;5.13;;
37657;SDS011;23500;53.268;8.308;2023-11-19T03:21:07;7.00;;;5.60;;
37657;SDS011;23500;53.268;8.308;2023-11-19T03:23:33;5.90;;;4.97;;
37657;SDS011;23500;53.268;8.308;2023-11-19T03:25:59;6.45;;;5.45;;
37657;SDS011;23500;53.268;8.308;2023-11-19T03:28:28;5.55;;;4.90;;
37657;SDS011;23500;53.268;8.308;2023-11-19T03:30:54;5.30;;;4.80;;
37657;SDS011;23500;53.268;8.308;2023-11-19T03:33:20;5.88;;;5.28;;
37657;SDS011;23500;53.268;8.308;2023-11-19T03:35:46;5.65;;;5.07;;
37657;SDS011;23500;53.268;8.308;2023-11-19T03:38:11;5.38;;;4.88;;
37657;SDS011;23500;53.268;8.308;2023-11-19T03:40:38;5.93;;;5.00;;
37657;SDS011;23500;53.268;8.308;2023-11-19T03:43:04;6.80;;;5.32;;
37657;SDS011;23500;53.268;8.308;2023-11-19T03:45:30;5.18;;;4.68;;
37657;SDS011;23500;53.268;8.308;2023-11-19T03:47:56;5.68;;;4.95;;
37657;SDS011;23500;53.268;8.308;2023-11-19T03:50:21;6.20;;;4.85;;
37657;SDS011;23500;53.268;8.308;2023-11-19T03:52:47;5.10;;;4.60;;
37657;SDS011;23500;53.268;8.308;2023-11-19T03:55:13;5.30;;;4.78;;
37657;SDS011;23500;53.268;8.308;2023-11-19T03:57:39;4.88;;;4.40;;
37657;SDS011;23500;53.268;8.308;2023-11-19T04:00:05;5.15;;;4.65;;
37657;SDS011;23500;53.268;8.308;2023-11-19T04:02:39;5.70;;;4.68;;
37657;SDS011;23500;53.268;8.308;2023-11-19T04:05:05;6.20;;;4.57;;
37657;SDS011;23500;53.268;8.308;2023-11-19T04:07:32;4.55;;;4.15;;
37657;SDS011;23500;53.268;8.308;2023-11-19T04:09:58;5.18;;;4.68;;
37657;SDS011;23500;53.268;8.308;2023-11-19T04:12:24;5.13;;;4.20;;
37657;SDS011;23500;53.268;8.308;2023-11-19T04:14:49;5.40;;;4.40;;
37657;SDS011;23500;53.268;8.308;2023-11-19T04:17:15;5.60;;;4.30;;
37657;SDS011;23500;53.268;8.308;2023-11-19T04:19:41;5.40;;;4.60;;
37657;SDS011;23500;53.268;8.308;2023-11-19T04:22:07;5.57;;;4.10;;
37657;SDS011;23500;53.268;8.308;2023-11-19T04:24:34;4.97;;;4.32;;
37657;SDS011;23500;53.268;8.308;2023-11-19T04:27:00;4.70;;;4.30;;
37657;SDS011;23500;53.268;8.308;2023-11-19T04:29:25;5.05;;;4.32;;
37657;SDS011;23500;53.268;8.308;2023-11-19T04:31:51;4.70;;;4.05;;
37657;SDS011;23500;53.268;8.308;2023-11-19T04:34:17;4.90;;;4.00;;
37657;SDS011;23500;53.268;8.308;2023-11-19T04:36:42;4.65;;;4.00;;
37657;SDS011;23500;53.268;8.308;2023-11-19T04:39:09;4.50;;;4.00;;
37657;SDS011;23500;53.268;8.308;2023-11-19T04:41:41;4.55;;;3.90;;
37657;SDS011;23500;53.268;8.308;2023-11-19T04:44:15;4.65;;;4.03;;
37657;SDS011;23500;53.268;8.308;2023-11-19T04:46:43;5.18;;;3.97;;
37657;SDS011;23500;53.268;8.308;2023-11-19T04:49:10;4.80;;;4.22;;
37657;SDS011;23500;53.268;8.308;2023-11-19T04:51:39;4.10;;;3.70;;
37657;SDS011;23500;53.268;8.308;2023-11-19T04:54:06;4.35;;;3.95;;
37657;SDS011;23500;53.268;8.308;2023-11-19T04:56:33;4.80;;;3.90;;
37657;SDS011;23500;53.268;8.308;2023-11-19T04:59:02;4.53;;;3.78;;
37657;SDS011;23500;53.268;8.308;2023-11-19T05:01:30;5.03;;;3.90;;
37657;SDS011;23500;53.268;8.308;2023-11-19T05:03:59;4.47;;;3.78;;
37657;SDS011;23500;53.268;8.308;2023-11-19T05:06:29;4.30;;;3.90;;
37657;SDS011;23500;53.268;8.308;2023-11-19T05:08:55;4.93;;;3.85;;
37657;SDS011;23500;53.268;8.308;2023-11-19T05:11:23;6.30;;;4.30;;
37657;SDS011;23500;53.268;8.308;2023-11-19T05:13:48;5.07;;;3.67;;
37657;SDS011;23500;53.268;8.308;2023-11-19T05:16:15;4.68;;;3.60;;
37657;SDS011;23500;53.268;8.308;2023-11-19T05:18:41;5.05;;;3.88;;
37657;SDS011;23500;53.268;8.308;2023-11-19T05:21:07;4.13;;;3.53;;
37657;SDS011;23500;53.268;8.308;2023-11-19T05:23:33;4.55;;;3.60;;
37657;SDS011;23500;53.268;8.308;2023-11-19T05:25:59;4.25;;;3.72;;
37657;SDS011;23500;53.268;8.308;2023-11-19T05:28:26;4.40;;;3.58;;
37657;SDS011;23500;53.268;8.308;2023-11-19T05:30:51;4.45;;;3.90;;
37657;SDS011;23500;53.268;8.308;2023-11-19T05:33:17;5.47;;;3.72;;
37657;SDS011;23500;53.268;8.308;2023-11-19T05:35:43;3.60;;;3.10;;
37657;SDS011;23500;53.268;8.308;2023-11-19T05:38:08;5.03;;;3.83;;
37657;SDS011;23500;53.268;8.308;2023-11-19T05:40:34;3.88;;;3.35;;
37657;SDS011;23500;53.268;8.308;2023-11-19T05:43:00;3.85;;;3.40;;
37657;SDS011;23500;53.268;8.308;2023-11-19T05:45:26;3.97;;;3.42;;
37657;SDS011;23500;53.268;8.308;2023-11-19T05:47:52;4.43;;;3.28;;
37657;SDS011;23500;53.268;8.308;2023-11-19T05:50:18;4.35;;;3.53;;
37657;SDS011;23500;53.268;8.308;2023-11-19T05:52:44;4.80;;;3.63;;
37657;SDS011;23500;53.268;8.308;2023-11-19T05:55:11;4.68;;;3.63;;
37657;SDS011;23500;53.268;8.308;2023-11-19T05:57:38;3.92;;;3.30;;
37657;SDS011;23500;53.268;8.308;2023-11-19T06:00:05;4.65;;;3.08;;
37657;SDS011;23500;53.268;8.308;2023-11-19T06:02:32;4.93;;;3.50;;
37657;SDS011;23500;53.268;8.308;2023-11-19T06:04:58;4.40;;;3.40;;
37657;SDS011;23500;53.268;8.308;2023-11-19T06:07:24;3.80;;;3.20;;
37657;SDS011;23500;53.268;8.308;2023-11-19T06:09:50;4.45;;;3.22;;
37657;SDS011;23500;53.268;8.308;2023-11-19T06:12:15;3.95;;;3.25;;
37657;SDS011;23500;53.268;8.308;2023-11-19T06:14:41;4.05;;;3.40;;
37657;SDS011;23500;53.268;8.308;2023-11-19T06:17:07;4.70;;;3.22;;
37657;SDS011;23500;53.268;8.308;2023-11-19T06:19:33;3.97;;;3.20;;
37657;SDS011;23500;53.268;8.308;2023-11-19T06:21:59;4.32;;;3.22;;
37657;SDS011;23500;53.268;8.308;2023-11-19T06:24:25;4.75;;;3.30;;
37657;SDS011;23500;53.268;8.308;2023-11-19T06:26:51;4.32;;;3.00;;
37657;SDS011;23500;53.268;8.308;2023-11-19T06:29:16;4.35;;;3.03;;
37657;SDS011;23500;53.268;8.308;2023-11-19T06:31:44;4.25;;;3.00;;
37657;SDS011;23500;53.268;8.308;2023-11-19T06:34:10;4.85;;;3.10;;
37657;SDS011;23500;53.268;8.308;2023-11-19T06:36:36;4.43;;;3.50;;
37657;SDS011;23500;53.268;8.308;2023-11-19T06:39:03;5.88;;;3.50;;
37657;SDS011;23500;53.268;8.308;2023-11-19T06:41:29;4.03;;;3.05;;
37657;SDS011;23500;53.268;8.308;2023-11-19T06:43:54;5.35;;;3.38;;
37657;SDS011;23500;53.268;8.308;2023-11-19T06:46:20;4.50;;;3.00;;
37657;SDS011;23500;53.268;8.308;2023-11-19T06:48:46;5.10;;;3.20;;
37657;SDS011;23500;53.268;8.308;2023-11-19T06:51:12;4.85;;;3.05;;
37657;SDS011;23500;53.268;8.308;2023-11-19T06:53:38;4.97;;;3.33;;
37657;SDS011;23500;53.268;8.308;2023-11-19T06:56:19;4.82;;;2.92;;
37657;SDS011;23500;53.268;8.308;2023-11-19T06:58:49;4.95;;;3.28;;
37657;SDS011;23500;53.268;8.308;2023-11-19T07:01:15;4.85;;;3.10;;
37657;SDS011;23500;53.268;8.308;2023-11-19T07:03:43;4.95;;;3.00;;
37657;SDS011;23500;53.268;8.308;2023-11-19T07:06:11;4.70;;;3.03;;
37657;SDS011;23500;53.268;8.308;2023-11-19T07:08:43;5.45;;;3.30;;
37657;SDS011;23500;53.268;8.308;2023-11-19T07:11:15;5.43;;;3.00;;
37657;SDS011;23500;53.268;8.308;2023-11-19T07:13:42;6.20;;;3.17;;
37657;SDS011;23500;53.268;8.308;2023-11-19T07:16:07;3.70;;;2.67;;
37657;SDS011;23500;53.268;8.308;2023-11-19T07:18:36;4.90;;;2.95;;
37657;SDS011;23500;53.268;8.308;2023-11-19T07:21:02;5.05;;;3.05;;
37657;SDS011;23500;53.268;8.308;2023-11-19T07:23:29;5.03;;;3.03;;
37657;SDS011;23500;53.268;8.308;2023-11-19T07:25:54;6.18;;;3.13;;
37657;SDS011;23500;53.268;8.308;2023-11-19T07:28:20;5.40;;;3.05;;
37657;SDS011;23500;53.268;8.308;2023-11-19T07:30:46;4.43;;;2.88;;
37657;SDS011;23500;53.268;8.308;2023-11-19T07:33:11;4.35;;;2.67;;
37657;SDS011;23500;53.268;8.308;2023-11-19T07:35:38;5.00;;;2.72;;
37657;SDS011;23500;53.268;8.308;2023-11-19T07:38:06;5.43;;;2.70;;
37657;SDS011;23500;53.268;8.308;2023-11-19T07:40:32;4.13;;;2.97;;
37657;SDS011;23500;53.268;8.308;2023-11-19T07:42:57;4.30;;;2.58;;
37657;SDS011;23500;53.268;8.308;2023-11-19T07:45:23;3.67;;;2.55;;
37657;SDS011;23500;53.268;8.308;2023-11-19T07:47:49;5.97;;;2.97;;
37657;SDS011;23500;53.268;8.308;2023-11-19T07:50:16;4.05;;;2.67;;
37657;SDS011;23500;53.268;8.308;2023-11-19T07:52:45;4.75;;;2.95;;
37657;SDS011;23500;53.268;8.308;2023-11-19T07:55:10;4.30;;;2.67;;
37657;SDS011;23500;53.268;8.308;2023-11-19T07:57:37;3.35;;;2.35;;
37657;SDS011;23500;53.268;8.308;2023-11-19T08:00:03;5.13;;;2.83;;
37657;SDS011;23500;53.268;8.308;2023-11-19T08:02:29;5.40;;;3.03;;
37657;SDS011;23500;53.268;8.308;2023-11-19T08:04:55;3.75;;;2.30;;
37657;SDS011;23500;53.268;8.308;2023-11-19T08:07:21;4.63;;;2.78;;
37657;SDS011;23500;53.268;8.308;2023-11-19T08:09:49;4.22;;;2.53;;
37657;SDS011;23500;53.268;8.308;2023-11-19T08:12:15;5.10;;;2.78;;
37657;SDS011;23500;53.268;8.308;2023-11-19T08:14:42;5.97;;;2.45;;
37657;SDS011;23500;53.268;8.308;2023-11-19T08:17:09;5.32;;;2.38;;
37657;SDS011;23500;53.268;8.308;2023-11-19T08:19:34;4.68;;;2.50;;
37657;SDS011;23500;53.268;8.308;2023-11-19T08:22:00;6.10;;;2.78;;
37657;SDS011;23500;53.268;8.308;2023-11-19T08:24:27;3.35;;;2.20;;
37657;SDS011;23500;53.268;8.308;2023-11-19T08:26:53;4.80;;;2.45;;
37657;SDS011;23500;53.268;8.308;2023-11-19T08:29:19;4.85;;;2.70;;
37657;SDS011;23500;53.268;8.308;2023-11-19T08:31:45;4.53;;;2.67;;
37657;SDS011;23500;53.268;8.308;2023-11-19T08:34:11;7.13;;;2.55;;
37657;SDS011;23500;53.268;8.308;2023-11-19T08:36:36;3.30;;;2.40;;
37657;SDS011;23500;53.268;8.308;2023-11-19T08:39:02;6.65;;;2.92;;
37657;SDS011;23500;53.268;8.308;2023-11-19T08:41:28;6.72;;;2.80;;
37657;SDS011;23500;53.268;8.308;2023-11-19T08:43:54;6.05;;;2.65;;
37657;SDS011;23500;53.268;8.308;2023-11-19T08:46:19;5.32;;;2.50;;
37657;SDS011;23500;53.268;8.308;2023-11-19T08:48:45;7.43;;;2.53;;
37657;SDS011;23500;53.268;8.308;2023-11-19T08:51:11;8.30;;;2.67;;
37657;SDS011;23500;53.268;8.308;2023-11-19T08:53:37;9.93;;;2.42;;
37657;SDS011;23500;53.268;8.308;2023-11-19T08:56:03;6.85;;;2.63;;
37657;SDS011;23500;53.268;8.308;2023-11-19T08:58:30;5.95;;;2.40;;
37657;SDS011;23500;53.268;8.308;2023-11-19T09:00:56;6.35;;;2.80;;
37657;SDS011;23500;53.268;8.308;2023-11-19T09:03:22;6.78;;;2.70;;
37657;SDS011;23500;53.268;8.308;2023-11-19T09:05:48;6.70;;;2.67;;
37657;SDS011;23500;53.268;8.308;2023-11-19T09:08:14;7.25;;;2.97;;
37657;SDS011;23500;53.268;8.308;2023-11-19T09:10:40;5.38;;;2.85;;
37657;SDS011;23500;53.268;8.308;2023-11-19T09:13:05;6.72;;;2.90;;
37657;SDS011;23500;53.268;8.308;2023-11-19T09:15:31;5.13;;;2.60;;
37657;SDS011;23500;53.268;8.308;2023-11-19T09:17:57;6.88;;;3.28;;
37657;SDS011;23500;53.268;8.308;2023-11-19T09:20:22;6.28;;;3.08;;
37657;SDS011;23500;53.268;8.308;2023-11-19T09:22:48;7.03;;;2.90;;
37657;SDS011;23500;53.268;8.308;2023-11-19T09:25:14;7.45;;;3.33;;
37657;SDS011;23500;53.268;8.308;2023-11-19T09:27:43;5.57;;;2.80;;
37657;SDS011;23500;53.268;8.308;2023-11-19T09:30:09;5.88;;;2.92;;
37657;SDS011;23500;53.268;8.308;2023-11-19T09:32:35;6.00;;;2.58;;
37657;SDS011;23500;53.268;8.308;2023-11-19T09:35:02;7.15;;;2.88;;
37657;SDS011;23500;53.268;8.308;2023-11-19T09:37:28;5.25;;;2.72;;
37657;SDS011;23500;53.268;8.308;2023-11-19T09:39:54;6.30;;;2.83;;
37657;SDS011;23500;53.268;8.308;2023-11-19T09:42:20;9.70;;;2.92;;
37657;SDS011;23500;53.268;8.308;2023-11-19T09:44:46;7.93;;;3.03;;
37657;SDS011;23500;53.268;8.308;2023-11-19T09:47:13;8.35;;;3.05;;
37657;SDS011;23500;53.268;8.308;2023-11-19T09:49:39;6.18;;;2.42;;
37657;SDS011;23500;53.268;8.308;2023-11-19T09:52:05;5.85;;;2.92;;
37657;SDS011;23500;53.268;8.308;2023-11-19T09:54:31;5.45;;;2.88;;
37657;SDS011;23500;53.268;8.308;2023-11-19T09:56:57;7.25;;;2.78;;
37657;SDS011;23500;53.268;8.308;2023-11-19T09:59:27;8.55;;;2.83;;
37657;SDS011;23500;53.268;8.308;2023-11-19T10:01:55;8.65;;;3.10;;
37657;SDS011;23500;53.268;8.308;2023-11-19T10:04:22;5.93;;;2.75;;
37657;SDS011;23500;53.268;8.308;2023-11-19T10:06:49;6.72;;;2.70;;
37657;SDS011;23500;53.268;8.308;2023-11-19T10:09:16;6.25;;;2.90;;
37657;SDS011;23500;53.268;8.308;2023-11-19T10:11:42;6.43;;;2.90;;
37657;SDS011;23500;53.268;8.308;2023-11-19T10:14:08;6.65;;;2.75;;
37657;SDS011;23500;53.268;8.308;2023-11-19T10:16:34;7.50;;;2.60;;
37657;SDS011;23500;53.268;8.308;2023-11-19T10:19:00;8.63;;;2.90;;
37657;SDS011;23500;53.268;8.308;2023-11-19T10:21:26;5.30;;;2.70;;
37657;SDS011;23500;53.268;8.308;2023-11-19T10:23:56;6.15;;;2.97;;
37657;SDS011;23500;53.268;8.308;2023-11-19T10:26:24;8.07;;;3.13;;
37657;SDS011;23500;53.268;8.308;2023-11-19T10:28:51;8.27;;;2.75;;
37657;SDS011;23500;53.268;8.308;2023-11-19T10:31:17;4.95;;;2.50;;
37657;SDS011;23500;53.268;8.308;2023-11-19T10:33:44;10.27;;;2.67;;
37657;SDS011;23500;53.268;8.308;2023-11-19T10:36:13;7.28;;;2.85;;
37657;SDS011;23500;53.268;8.308;2023-11-19T10:38:39;5.75;;;2.75;;
37657;SDS011;23500;53.268;8.308;2023-11-19T10:41:06;7.55;;;3.08;;
37657;SDS011;23500;53.268;8.308;2023-11-19T10:43:42;6.30;;;2.40;;
37657;SDS011;23500;53.268;8.308;2023-11-19T10:46:10;18.10;;;3.05;;
37657;SDS011;23500;53.268;8.308;2023-11-19T10:48:36;7.53;;;2.90;;
37657;SDS011;23500;53.268;8.308;2023-11-19T10:51:06;7.70;;;2.75;;
37657;SDS011;23500;53.268;8.308;2023-11-19T10:53:36;8.90;;;2.85;;
37657;SDS011;23500;53.268;8.308;2023-11-19T10:56:04;7.45;;;3.13;;
37657;SDS011;23500;53.268;8.308;2023-11-19T10:58:35;6.47;;;2.50;;
37657;SDS011;23500;53.268;8.308;2023-11-19T11:01:07;10.20;;;3.30;;
37657;SDS011;23500;53.268;8.308;2023-11-19T11:03:41;10.13;;;2.88;;
37657;SDS011;23500;53.268;8.308;2023-11-19T11:06:11;9.45;;;2.60;;
37657;SDS011;23500;53.268;8.308;2023-11-19T11:08:38;7.97;;;2.72;;
37657;SDS011;23500;53.268;8.308;2023-11-19T11:11:04;11.50;;;3.38;;
37657;SDS011;23500;53.268;8.308;2023-11-19T11:13:34;6.25;;;2.65;;
37657;SDS011;23500;53.268;8.308;2023-11-19T11:16:05;8.07;;;3.05;;
37657;SDS011;23500;53.268;8.308;2023-11-19T11:18:32;8.95;;;3.22;;
37657;SDS011;23500;53.268;8.308;2023-11-19T11:21:00;7.60;;;2.85;;
37657;SDS011;23500;53.268;8.308;2023-11-19T11:28:58;10.30;;;3.83;;
37657;SDS011;23500;53.268;8.308;2023-11-19T11:37:18;10.32;;;3.20;;
37657;SDS011;23500;53.268;8.308;2023-11-19T11:39:53;7.22;;;2.55;;
37657;SDS011;23500;53.268;8.308;2023-11-19T11:50:15;7.80;;;3.35;;
37657;SDS011;23500;53.268;8.308;2023-11-19T11:57:50;7.85;;;3.10;;
37657;SDS011;23500;53.268;8.308;2023-11-19T12:00:31;8.52;;;3.00;;
37657;SDS011;23500;53.268;8.308;2023-11-19T12:03:02;9.60;;;3.15;;
37657;SDS011;23500;53.268;8.308;2023-11-19T12:05:30;7.53;;;2.83;;
37657;SDS011;23500;53.268;8.308;2023-11-19T12:08:03;9.77;;;3.40;;
37657;SDS011;23500;53.268;8.308;2023-11-19T12:10:32;8.93;;;3.05;;
37657;SDS011;23500;53.268;8.308;2023-11-19T12:13:02;8.70;;;3.20;;
37657;SDS011;23500;53.268;8.308;2023-11-19T12:15:33;7.85;;;3.03;;
37657;SDS011;23500;53.268;8.308;2023-11-19T12:18:18;8.95;;;3.20;;
37657;SDS011;23500;53.268;8.308;2023-11-19T12:20:44;6.78;;;3.20;;
37657;SDS011;23500;53.268;8.308;2023-11-19T12:23:10;8.38;;;3.33;;
37657;SDS011;23500;53.268;8.308;2023-11-19T12:25:36;8.15;;;3.05;;
37657;SDS011;23500;53.268;8.308;2023-11-19T12:28:02;8.77;;;2.95;;
37657;SDS011;23500;53.268;8.308;2023-11-19T12:30:29;9.73;;;3.08;;
37657;SDS011;23500;53.268;8.308;2023-11-19T12:32:55;9.32;;;3.13;;
37657;SDS011;23500;53.268;8.308;2023-11-19T12:35:21;6.05;;;3.05;;
37657;SDS011;23500;53.268;8.308;2023-11-19T12:37:47;8.02;;;3.05;;
37657;SDS011;23500;53.268;8.308;2023-11-19T12:40:15;6.78;;;2.88;;
37657;SDS011;23500;53.268;8.308;2023-11-19T12:42:42;8.40;;;3.08;;
37657;SDS011;23500;53.268;8.308;2023-11-19T12:45:09;7.65;;;2.60;;
37657;SDS011;23500;53.268;8.308;2023-11-19T12:47:36;7.88;;;2.75;;
37657;SDS011;23500;53.268;8.308;2023-11-19T12:50:02;7.80;;;2.90;;
37657;SDS011;23500;53.268;8.308;2023-11-19T12:52:29;7.15;;;2.83;;
37657;SDS011;23500;53.268;8.308;2023-11-19T12:54:55;5.18;;;2.42;;
37657;SDS011;23500;53.268;8.308;2023-11-19T12:57:35;11.38;;;3.20;;
37657;SDS011;23500;53.268;8.308;2023-11-19T13:00:07;6.95;;;3.10;;
37657;SDS011;23500;53.268;8.308;2023-11-19T13:02:45;6.82;;;2.88;;
37657;SDS011;23500;53.268;8.308;2023-11-19T13:05:31;6.32;;;2.75;;
37657;SDS011;23500;53.268;8.308;2023-11-19T13:08:10;7.15;;;3.10;;
37657;SDS011;23500;53.268;8.308;2023-11-19T13:13:21;7.18;;;2.63;;
37657;SDS011;23500;53.268;8.308;2023-11-19T13:15:47;7.38;;;3.25;;
37657;SDS011;23500;53.268;8.308;2023-11-19T13:18:15;6.43;;;2.65;;
37657;SDS011;23500;53.268;8.308;2023-11-19T13:20:41;6.45;;;2.88;;
37657;SDS011;23500;53.268;8.308;2023-11-19T13:23:08;7.32;;;2.58;;
37657;SDS011;23500;53.268;8.308;2023-11-19T13:25:34;6.32;;;3.15;;
37657;SDS011;23500;53.268;8.308;2023-11-19T13:27:59;5.80;;;3.00;;
37657;SDS011;23500;53.268;8.308;2023-11-19T13:30:25;5.82;;;2.67;;
37657;SDS011;23500;53.268;8.308;2023-11-19T13:32:52;6.05;;;2.72;;
37657;SDS011;23500;53.268;8.308;2023-11-19T13:35:20;6.47;;;3.00;;
37657;SDS011;23500;53.268;8.308;2023-11-19T13:37:47;5.03;;;2.30;;
37657;SDS011;23500;53.268;8.308;2023-11-19T13:40:13;5.00;;;2.50;;
37657;SDS011;23500;53.268;8.308;2023-11-19T13:42:42;5.90;;;2.53;;
37657;SDS011;23500;53.268;8.308;2023-11-19T13:47:41;6.68;;;2.90;;
37657;SDS011;23500;53.268;8.308;2023-11-19T13:50:17;8.43;;;2.72;;
37657;SDS011;23500;53.268;8.308;2023-11-19T13:52:44;4.85;;;2.28;;
37657;SDS011;23500;53.268;8.308;2023-11-19T13:55:11;4.65;;;2.08;;
37657;SDS011;23500;53.268;8.308;2023-11-19T13:57:41;5.13;;;2.42;;
37657;SDS011;23500;53.268;8.308;2023-11-19T14:00:08;5.25;;;2.60;;
37657;SDS011;23500;53.268;8.308;2023-11-19T14:02:41;6.22;;;2.78;;
37657;SDS011;23500;53.268;8.308;2023-11-19T14:05:07;6.63;;;2.38;;
37657;SDS011;23500;53.268;8.308;2023-11-19T14:07:34;5.60;;;2.70;;
37657;SDS011;23500;53.268;8.308;2023-11-19T14:10:00;6.30;;;2.60;;
37657;SDS011;23500;53.268;8.308;2023-11-19T14:12:26;6.88;;;2.20;;
37657;SDS011;23500;53.268;8.308;2023-11-19T14:14:51;4.38;;;2.20;;
37657;SDS011;23500;53.268;8.308;2023-11-19T14:17:17;6.15;;;2.33;;
37657;SDS011;23500;53.268;8.308;2023-11-19T14:19:43;5.22;;;2.53;;
37657;SDS011;23500;53.268;8.308;2023-11-19T14:22:10;5.88;;;2.83;;
37657;SDS011;23500;53.268;8.308;2023-11-19T14:24:36;5.32;;;2.28;;
37657;SDS011;23500;53.268;8.308;2023-11-19T14:27:02;5.03;;;2.45;;
37657;SDS011;23500;53.268;8.308;2023-11-19T14:29:28;5.03;;;2.28;;
37657;SDS011;23500;53.268;8.308;2023-11-19T14:31:55;5.82;;;2.38;;
37657;SDS011;23500;53.268;8.308;2023-11-19T14:34:21;5.18;;;2.40;;
37657;SDS011;23500;53.268;8.308;2023-11-19T14:36:47;5.63;;;2.40;;
37657;SDS011;23500;53.268;8.308;2023-11-19T14:39:14;4.22;;;2.00;;
37657;SDS011;23500;53.268;8.308;2023-11-19T14:41:40;5.40;;;2.13;;
37657;SDS011;23500;53.268;8.308;2023-11-19T14:44:05;4.90;;;2.03;;
37657;SDS011;23500;53.268;8.308;2023-11-19T14:46:31;5.63;;;2.47;;
37657;SDS011;23500;53.268;8.308;2023-11-19T14:48:57;6.93;;;2.50;;
37657;SDS011;23500;53.268;8.308;2023-11-19T14:51:23;5.00;;;2.58;;
37657;SDS011;23500;53.268;8.308;2023-11-19T14:53:49;4.80;;;2.33;;
37657;SDS011;23500;53.268;8.308;2023-11-19T14:56:15;5.90;;;2.30;;
37657;SDS011;23500;53.268;8.308;2023-11-19T14:58:41;6.90;;;2.63;;
37657;SDS011;23500;53.268;8.308;2023-11-19T15:01:07;5.72;;;2.30;;
37657;SDS011;23500;53.268;8.308;2023-11-19T15:03:37;5.07;;;2.10;;
37657;SDS011;23500;53.268;8.308;2023-11-19T15:06:03;5.25;;;2.33;;
37657;SDS011;23500;53.268;8.308;2023-11-19T15:08:29;5.82;;;2.33;;
37657;SDS011;23500;53.268;8.308;2023-11-19T15:10:55;4.90;;;2.35;;
37657;SDS011;23500;53.268;8.308;2023-11-19T15:13:23;4.40;;;2.22;;